Weather search by city/station or by Location Indicator (LI)

Please do one of the following:
a) Search the weather station by station, city or country name and click Search button
b) Enter the four-character Location Indicator (i.e. EFHK = Helsinki) and click Submit button

a) Search the station:   

b) Location Indicator:  

The ICAO Location Indicator code is explained here.

METAR = EFHK 311020Z VRB02KT 9999 FEW002 BKN042 05/05 Q1024 NOSIG

STATIONEFHK
NAMEHelsinki/Vantaa Arpt, UU, FI
OBSERVED31.10.2020 12:20 (31.10.2020 10:20 UTC), 14 min ago
TEMPERATURE5.0°C ( 41°F)
WINDCHILL4.7 °C (40 °F)
WINDvariable direction winds at 2 MPH (2 knots; 1.0 m/s)
HUMIDITY100%
PRESSURE1024 hPa